sensor_id;sensor_type;location;lat;lon;timestamp;temperature;humidity
21646;DHT22;10984;45.712;4.800;2022-12-07T00:01:46;4.10;99.90
21646;DHT22;10984;45.712;4.800;2022-12-07T00:04:14;4.10;99.90
21646;DHT22;10984;45.712;4.800;2022-12-07T00:06:42;4.10;99.90
21646;DHT22;10984;45.712;4.800;2022-12-07T00:09:27;4.10;99.90
21646;DHT22;10984;45.712;4.800;2022-12-07T00:11:52;4.10;99.90
21646;DHT22;10984;45.712;4.800;2022-12-07T00:14:18;4.10;99.90
21646;DHT22;10984;45.712;4.800;2022-12-07T00:16:45;4.00;99.90
21646;DHT22;10984;45.712;4.800;2022-12-07T00:19:12;4.10;99.90
21646;DHT22;10984;45.712;4.800;2022-12-07T00:21:38;4.10;99.90
21646;DHT22;10984;45.712;4.800;2022-12-07T00:24:05;4.10;99.90
21646;DHT22;10984;45.712;4.800;2022-12-07T00:26:33;4.20;99.90
21646;DHT22;10984;45.712;4.800;2022-12-07T00:31:45;4.20;99.90
21646;DHT22;10984;45.712;4.800;2022-12-07T00:34:29;4.20;99.90
21646;DHT22;10984;45.712;4.800;2022-12-07T00:36:55;4.30;99.90
21646;DHT22;10984;45.712;4.800;2022-12-07T00:39:20;4.30;99.90
21646;DHT22;10984;45.712;4.800;2022-12-07T00:41:46;4.20;99.90
21646;DHT22;10984;45.712;4.800;2022-12-07T00:44:12;4.30;99.90
21646;DHT22;10984;45.712;4.800;2022-12-07T00:46:37;4.20;99.90
21646;DHT22;10984;45.712;4.800;2022-12-07T00:49:03;4.20;99.90
21646;DHT22;10984;45.712;4.800;2022-12-07T00:51:29;4.20;99.90
21646;DHT22;10984;45.712;4.800;2022-12-07T00:53:55;4.30;99.90
21646;DHT22;10984;45.712;4.800;2022-12-07T00:56:24;4.20;99.90
21646;DHT22;10984;45.712;4.800;2022-12-07T00:59:10;4.30;99.90
21646;DHT22;10984;45.712;4.800;2022-12-07T01:01:37;4.30;99.90
21646;DHT22;10984;45.712;4.800;2022-12-07T01:04:04;4.30;99.90
21646;DHT22;10984;45.712;4.800;2022-12-07T01:06:30;4.20;99.90
21646;DHT22;10984;45.712;4.800;2022-12-07T01:08:56;4.30;99.90
21646;DHT22;10984;45.712;4.800;2022-12-07T01:11:24;4.30;99.90
21646;DHT22;10984;45.712;4.800;2022-12-07T01:14:09;4.30;99.90
21646;DHT22;10984;45.712;4.800;2022-12-07T01:16:35;4.30;99.90
21646;DHT22;10984;45.712;4.800;2022-12-07T01:19:02;4.20;99.90
21646;DHT22;10984;45.712;4.800;2022-12-07T01:21:32;4.20;99.90
21646;DHT22;10984;45.712;4.800;2022-12-07T01:24:00;4.20;99.90
21646;DHT22;10984;45.712;4.800;2022-12-07T01:26:27;4.20;99.90
21646;DHT22;10984;45.712;4.800;2022-12-07T01:28:52;4.20;99.90
21646;DHT22;10984;45.712;4.800;2022-12-07T01:31:22;4.20;99.90
21646;DHT22;10984;45.712;4.800;2022-12-07T01:33:51;4.30;99.90
21646;DHT22;10984;45.712;4.800;2022-12-07T01:36:35;4.20;99.90
21646;DHT22;10984;45.712;4.800;2022-12-07T01:39:05;4.20;99.90
21646;DHT22;10984;45.712;4.800;2022-12-07T01:41:35;4.30;99.90
21646;DHT22;10984;45.712;4.800;2022-12-07T01:47:04;4.20;99.90
21646;DHT22;10984;45.712;4.800;2022-12-07T01:49:48;4.30;99.90
21646;DHT22;10984;45.712;4.800;2022-12-07T01:52:33;4.30;99.90
21646;DHT22;10984;45.712;4.800;2022-12-07T01:55:06;4.20;99.90
21646;DHT22;10984;45.712;4.800;2022-12-07T01:57:34;4.20;99.90
21646;DHT22;10984;45.712;4.800;2022-12-07T02:00:03;4.20;99.90
21646;DHT22;10984;45.712;4.800;2022-12-07T02:05:17;4.20;99.90
21646;DHT22;10984;45.712;4.800;2022-12-07T02:07:43;4.20;99.90
21646;DHT22;10984;45.712;4.800;2022-12-07T02:10:29;4.20;99.90
21646;DHT22;10984;45.712;4.800;2022-12-07T02:13:15;4.20;99.90
21646;DHT22;10984;45.712;4.800;2022-12-07T02:30:26;4.30;99.90
21646;DHT22;10984;45.712;4.800;2022-12-07T02:41:13;4.20;99.90
21646;DHT22;10984;45.712;4.800;2022-12-07T02:46:28;4.20;99.90
21646;DHT22;10984;45.712;4.800;2022-12-07T02:48:55;4.20;99.90
21646;DHT22;10984;45.712;4.800;2022-12-07T02:51:22;4.20;99.90
21646;DHT22;10984;45.712;4.800;2022-12-07T02:53:47;4.20;99.90
21646;DHT22;10984;45.712;4.800;2022-12-07T03:11:14;4.30;99.90
21646;DHT22;10984;45.712;4.800;2022-12-07T03:17:05;4.30;99.90
21646;DHT22;10984;45.712;4.800;2022-12-07T03:19:33;4.20;99.90
21646;DHT22;10984;45.712;4.800;2022-12-07T03:22:03;4.20;99.90
21646;DHT22;10984;45.712;4.800;2022-12-07T03:30:23;4.30;99.90
21646;DHT22;10984;45.712;4.800;2022-12-07T03:35:40;4.20;99.90
21646;DHT22;10984;45.712;4.800;2022-12-07T03:41:31;4.20;99.90
21646;DHT22;10984;45.712;4.800;2022-12-07T03:43:59;4.20;99.90
21646;DHT22;10984;45.712;4.800;2022-12-07T03:46:44;4.20;99.90
21646;DHT22;10984;45.712;4.800;2022-12-07T03:58:13;4.10;99.90
21646;DHT22;10984;45.712;4.800;2022-12-07T04:00:42;4.10;99.90
21646;DHT22;10984;45.712;4.800;2022-12-07T04:03:09;4.10;99.90
21646;DHT22;10984;45.712;4.800;2022-12-07T04:05:35;4.10;99.90
21646;DHT22;10984;45.712;4.800;2022-12-07T04:08:00;4.10;99.90
21646;DHT22;10984;45.712;4.800;2022-12-07T04:10:26;4.10;99.90
21646;DHT22;10984;45.712;4.800;2022-12-07T04:12:52;4.10;99.90
21646;DHT22;10984;45.712;4.800;2022-12-07T04:15:17;4.10;99.90
21646;DHT22;10984;45.712;4.800;2022-12-07T04:17:43;4.10;99.90
21646;DHT22;10984;45.712;4.800;2022-12-07T04:20:09;4.10;99.90
21646;DHT22;10984;45.712;4.800;2022-12-07T04:22:35;4.10;99.90
21646;DHT22;10984;45.712;4.800;2022-12-07T04:25:01;4.10;99.90
21646;DHT22;10984;45.712;4.800;2022-12-07T04:27:27;4.10;99.90
21646;DHT22;10984;45.712;4.800;2022-12-07T04:29:52;4.10;99.90
21646;DHT22;10984;45.712;4.800;2022-12-07T04:32:18;4.10;99.90
21646;DHT22;10984;45.712;4.800;2022-12-07T04:34:44;4.10;99.90
21646;DHT22;10984;45.712;4.800;2022-12-07T04:37:09;4.00;99.90
21646;DHT22;10984;45.712;4.800;2022-12-07T04:39:35;4.00;99.90
21646;DHT22;10984;45.712;4.800;2022-12-07T04:42:01;4.00;99.90
21646;DHT22;10984;45.712;4.800;2022-12-07T04:44:28;4.00;99.90
21646;DHT22;10984;45.712;4.800;2022-12-07T04:46:54;4.10;99.90
21646;DHT22;10984;45.712;4.800;2022-12-07T04:49:21;4.00;99.90
21646;DHT22;10984;45.712;4.800;2022-12-07T04:51:47;4.10;99.90
21646;DHT22;10984;45.712;4.800;2022-12-07T04:54:14;4.00;99.90
21646;DHT22;10984;45.712;4.800;2022-12-07T04:56:40;4.00;99.90
21646;DHT22;10984;45.712;4.800;2022-12-07T04:59:06;4.10;99.90
21646;DHT22;10984;45.712;4.800;2022-12-07T05:01:33;4.00;99.90
21646;DHT22;10984;45.712;4.800;2022-12-07T05:03:59;4.00;99.90
21646;DHT22;10984;45.712;4.800;2022-12-07T05:06:24;4.00;99.90
21646;DHT22;10984;45.712;4.800;2022-12-07T05:08:50;4.00;99.90
21646;DHT22;10984;45.712;4.800;2022-12-07T05:11:16;4.10;99.90
21646;DHT22;10984;45.712;4.800;2022-12-07T05:14:01;4.10;99.90
21646;DHT22;10984;45.712;4.800;2022-12-07T05:16:27;4.20;99.90
21646;DHT22;10984;45.712;4.800;2022-12-07T05:18:54;4.20;99.90
21646;DHT22;10984;45.712;4.800;2022-12-07T05:21:20;4.20;99.90
21646;DHT22;10984;45.712;4.800;2022-12-07T05:23:46;4.20;99.90
21646;DHT22;10984;45.712;4.800;2022-12-07T05:26:12;4.10;99.90
21646;DHT22;10984;45.712;4.800;2022-12-07T05:28:38;4.10;99.90
21646;DHT22;10984;45.712;4.800;2022-12-07T05:31:03;4.10;99.90
21646;DHT22;10984;45.712;4.800;2022-12-07T05:33:29;4.10;99.90
21646;DHT22;10984;45.712;4.800;2022-12-07T05:35:55;4.00;99.90
21646;DHT22;10984;45.712;4.800;2022-12-07T05:38:20;3.90;99.90
21646;DHT22;10984;45.712;4.800;2022-12-07T05:40:46;3.90;99.90
21646;DHT22;10984;45.712;4.800;2022-12-07T05:43:12;3.90;99.90
21646;DHT22;10984;45.712;4.800;2022-12-07T05:45:37;3.90;99.90
21646;DHT22;10984;45.712;4.800;2022-12-07T05:48:03;3.90;99.90
21646;DHT22;10984;45.712;4.800;2022-12-07T05:50:29;3.80;99.90
21646;DHT22;10984;45.712;4.800;2022-12-07T05:52:54;3.90;99.90
21646;DHT22;10984;45.712;4.800;2022-12-07T05:55:20;3.90;99.90
21646;DHT22;10984;45.712;4.800;2022-12-07T05:57:46;3.80;99.90
21646;DHT22;10984;45.712;4.800;2022-12-07T06:00:32;3.90;99.90
21646;DHT22;10984;45.712;4.800;2022-12-07T06:02:57;3.90;99.90
21646;DHT22;10984;45.712;4.800;2022-12-07T06:05:23;3.90;99.90
21646;DHT22;10984;45.712;4.800;2022-12-07T06:07:49;3.80;99.90
21646;DHT22;10984;45.712;4.800;2022-12-07T06:10:15;3.90;99.90
21646;DHT22;10984;45.712;4.800;2022-12-07T06:12:40;3.80;99.90
21646;DHT22;10984;45.712;4.800;2022-12-07T06:15:09;3.80;99.90
21646;DHT22;10984;45.712;4.800;2022-12-07T06:17:36;3.80;99.90
21646;DHT22;10984;45.712;4.800;2022-12-07T06:20:02;3.80;99.90
21646;DHT22;10984;45.712;4.800;2022-12-07T06:22:28;3.80;99.90
21646;DHT22;10984;45.712;4.800;2022-12-07T06:24:54;3.90;99.90
21646;DHT22;10984;45.712;4.800;2022-12-07T06:27:19;3.90;99.90
21646;DHT22;10984;45.712;4.800;2022-12-07T06:29:45;3.90;99.90
21646;DHT22;10984;45.712;4.800;2022-12-07T06:32:11;3.80;99.90
21646;DHT22;10984;45.712;4.800;2022-12-07T06:34:37;3.80;99.90
21646;DHT22;10984;45.712;4.800;2022-12-07T06:37:03;3.90;99.90
21646;DHT22;10984;45.712;4.800;2022-12-07T06:39:29;3.90;99.90
21646;DHT22;10984;45.712;4.800;2022-12-07T06:41:56;3.90;99.90
21646;DHT22;10984;45.712;4.800;2022-12-07T06:44:22;3.90;99.90
21646;DHT22;10984;45.712;4.800;2022-12-07T06:46:49;3.90;99.90
21646;DHT22;10984;45.712;4.800;2022-12-07T06:49:15;3.90;99.90
21646;DHT22;10984;45.712;4.800;2022-12-07T06:51:42;3.90;99.90
21646;DHT22;10984;45.712;4.800;2022-12-07T06:54:10;3.90;99.90
21646;DHT22;10984;45.712;4.800;2022-12-07T06:56:36;3.90;99.90
21646;DHT22;10984;45.712;4.800;2022-12-07T06:59:02;3.80;99.90
21646;DHT22;10984;45.712;4.800;2022-12-07T07:01:27;3.90;99.90
21646;DHT22;10984;45.712;4.800;2022-12-07T07:03:53;3.80;99.90
21646;DHT22;10984;45.712;4.800;2022-12-07T07:06:19;3.80;99.90
21646;DHT22;10984;45.712;4.800;2022-12-07T07:08:45;3.80;99.90
21646;DHT22;10984;45.712;4.800;2022-12-07T07:11:11;3.70;99.90
21646;DHT22;10984;45.712;4.800;2022-12-07T07:13:37;3.70;99.90
21646;DHT22;10984;45.712;4.800;2022-12-07T07:16:03;3.80;99.90
21646;DHT22;10984;45.712;4.800;2022-12-07T07:18:29;3.80;99.90
21646;DHT22;10984;45.712;4.800;2022-12-07T07:20:55;3.80;99.90
21646;DHT22;10984;45.712;4.800;2022-12-07T07:23:21;3.80;99.90
21646;DHT22;10984;45.712;4.800;2022-12-07T07:25:47;3.80;99.90
21646;DHT22;10984;45.712;4.800;2022-12-07T07:28:14;3.90;99.90
21646;DHT22;10984;45.712;4.800;2022-12-07T07:30:40;3.80;99.90
21646;DHT22;10984;45.712;4.800;2022-12-07T07:33:06;3.90;99.90
21646;DHT22;10984;45.712;4.800;2022-12-07T07:35:33;3.90;99.90
21646;DHT22;10984;45.712;4.800;2022-12-07T07:37:59;3.90;99.90
21646;DHT22;10984;45.712;4.800;2022-12-07T07:40:26;3.90;99.90
21646;DHT22;10984;45.712;4.800;2022-12-07T07:42:53;3.80;99.90
21646;DHT22;10984;45.712;4.800;2022-12-07T07:45:20;3.90;99.90
21646;DHT22;10984;45.712;4.800;2022-12-07T07:47:48;3.90;99.90
21646;DHT22;10984;45.712;4.800;2022-12-07T07:50:13;3.90;99.90
21646;DHT22;10984;45.712;4.800;2022-12-07T07:52:39;3.90;99.90
21646;DHT22;10984;45.712;4.800;2022-12-07T07:55:06;3.90;99.90
21646;DHT22;10984;45.712;4.800;2022-12-07T07:57:34;4.00;99.90
21646;DHT22;10984;45.712;4.800;2022-12-07T08:00:00;4.00;99.90
21646;DHT22;10984;45.712;4.800;2022-12-07T08:02:25;4.00;99.90
21646;DHT22;10984;45.712;4.800;2022-12-07T08:04:51;4.00;99.90
21646;DHT22;10984;45.712;4.800;2022-12-07T08:07:17;4.00;99.90
21646;DHT22;10984;45.712;4.800;2022-12-07T08:09:42;4.00;99.90
21646;DHT22;10984;45.712;4.800;2022-12-07T08:12:08;4.00;99.90
21646;DHT22;10984;45.712;4.800;2022-12-07T08:14:34;4.00;99.90
21646;DHT22;10984;45.712;4.800;2022-12-07T08:17:00;4.10;99.90
21646;DHT22;10984;45.712;4.800;2022-12-07T08:19:26;4.10;99.90
21646;DHT22;10984;45.712;4.800;2022-12-07T08:21:52;4.10;99.90
21646;DHT22;10984;45.712;4.800;2022-12-07T08:24:17;4.10;99.90
21646;DHT22;10984;45.712;4.800;2022-12-07T08:26:43;4.10;99.90
21646;DHT22;10984;45.712;4.800;2022-12-07T08:29:09;4.00;99.90
21646;DHT22;10984;45.712;4.800;2022-12-07T08:31:35;4.00;99.90
21646;DHT22;10984;45.712;4.800;2022-12-07T08:34:01;4.10;99.90
21646;DHT22;10984;45.712;4.800;2022-12-07T08:36:27;4.10;99.90
21646;DHT22;10984;45.712;4.800;2022-12-07T08:38:53;4.00;99.90
21646;DHT22;10984;45.712;4.800;2022-12-07T08:41:19;4.10;99.90
21646;DHT22;10984;45.712;4.800;2022-12-07T08:43:44;4.10;99.90
21646;DHT22;10984;45.712;4.800;2022-12-07T08:49:04;4.00;99.90
21646;DHT22;10984;45.712;4.800;2022-12-07T08:51:32;4.10;99.90
21646;DHT22;10984;45.712;4.800;2022-12-07T08:53:59;4.10;99.90
21646;DHT22;10984;45.712;4.800;2022-12-07T08:56:26;4.10;99.90
21646;DHT22;10984;45.712;4.800;2022-12-07T08:58:52;4.20;99.90
21646;DHT22;10984;45.712;4.800;2022-12-07T09:01:18;4.20;99.90
21646;DHT22;10984;45.712;4.800;2022-12-07T09:03:43;4.20;99.90
21646;DHT22;10984;45.712;4.800;2022-12-07T09:06:09;4.20;99.90
21646;DHT22;10984;45.712;4.800;2022-12-07T09:08:40;4.10;99.90
21646;DHT22;10984;45.712;4.800;2022-12-07T09:11:07;4.10;99.90
21646;DHT22;10984;45.712;4.800;2022-12-07T09:13:33;4.20;99.90
21646;DHT22;10984;45.712;4.800;2022-12-07T09:15:58;4.20;99.90
21646;DHT22;10984;45.712;4.800;2022-12-07T09:18:24;4.20;99.90
21646;DHT22;10984;45.712;4.800;2022-12-07T09:20:50;4.20;99.90
21646;DHT22;10984;45.712;4.800;2022-12-07T09:23:16;4.30;99.90
21646;DHT22;10984;45.712;4.800;2022-12-07T09:25:42;4.30;99.90
21646;DHT22;10984;45.712;4.800;2022-12-07T09:28:07;4.40;99.90
21646;DHT22;10984;45.712;4.800;2022-12-07T09:30:34;4.40;99.90
21646;DHT22;10984;45.712;4.800;2022-12-07T09:32:59;4.40;99.90
21646;DHT22;10984;45.712;4.800;2022-12-07T09:35:25;4.40;99.90
21646;DHT22;10984;45.712;4.800;2022-12-07T09:37:52;4.40;99.90
21646;DHT22;10984;45.712;4.800;2022-12-07T09:40:19;4.50;99.90
21646;DHT22;10984;45.712;4.800;2022-12-07T09:42:48;4.50;99.90
21646;DHT22;10984;45.712;4.800;2022-12-07T09:45:31;4.50;99.90
21646;DHT22;10984;45.712;4.800;2022-12-07T09:47:58;4.60;99.90
21646;DHT22;10984;45.712;4.800;2022-12-07T09:50:27;4.50;99.90
21646;DHT22;10984;45.712;4.800;2022-12-07T09:52:55;4.50;99.90
21646;DHT22;10984;45.712;4.800;2022-12-07T09:55:28;4.50;99.90
21646;DHT22;10984;45.712;4.800;2022-12-07T09:57:55;4.60;99.90
21646;DHT22;10984;45.712;4.800;2022-12-07T10:00:22;4.60;99.90
21646;DHT22;10984;45.712;4.800;2022-12-07T10:05:40;4.60;99.90
21646;DHT22;10984;45.712;4.800;2022-12-07T10:08:09;4.60;99.90
21646;DHT22;10984;45.712;4.800;2022-12-07T10:10:36;4.60;99.90
21646;DHT22;10984;45.712;4.800;2022-12-07T10:15:54;4.70;99.90
21646;DHT22;10984;45.712;4.800;2022-12-07T10:18:29;4.80;99.90
21646;DHT22;10984;45.712;4.800;2022-12-07T10:21:15;4.80;99.90
21646;DHT22;10984;45.712;4.800;2022-12-07T10:24:14;4.80;99.90
21646;DHT22;10984;45.712;4.800;2022-12-07T10:26:58;4.70;99.90
21646;DHT22;10984;45.712;4.800;2022-12-07T10:29:43;4.70;99.90
21646;DHT22;10984;45.712;4.800;2022-12-07T10:32:32;4.80;99.90
21646;DHT22;10984;45.712;4.800;2022-12-07T10:38:16;4.80;99.90
21646;DHT22;10984;45.712;4.800;2022-12-07T10:40:42;4.90;99.90
21646;DHT22;10984;45.712;4.800;2022-12-07T10:43:26;4.90;99.90
21646;DHT22;10984;45.712;4.800;2022-12-07T11:00:20;4.90;99.90
21646;DHT22;10984;45.712;4.800;2022-12-07T11:41:12;5.10;99.90
21646;DHT22;10984;45.712;4.800;2022-12-07T11:46:55;5.00;99.90
21646;DHT22;10984;45.712;4.800;2022-12-07T11:52:35;4.90;99.90
21646;DHT22;10984;45.712;4.800;2022-12-07T11:55:18;5.00;99.90
21646;DHT22;10984;45.712;4.800;2022-12-07T11:57:50;5.00;99.90
21646;DHT22;10984;45.712;4.800;2022-12-07T12:00:17;5.00;99.90
21646;DHT22;10984;45.712;4.800;2022-12-07T12:03:12;5.00;99.90
21646;DHT22;10984;45.712;4.800;2022-12-07T12:05:41;5.10;99.90
21646;DHT22;10984;45.712;4.800;2022-12-07T12:19:40;5.40;99.90
21646;DHT22;10984;45.712;4.800;2022-12-07T12:22:28;5.50;99.90
21646;DHT22;10984;45.712;4.800;2022-12-07T12:24:57;5.60;99.90
21646;DHT22;10984;45.712;4.800;2022-12-07T12:27:29;5.60;99.90
21646;DHT22;10984;45.712;4.800;2022-12-07T12:30:01;5.70;99.90
21646;DHT22;10984;45.712;4.800;2022-12-07T12:32:47;5.70;99.90
21646;DHT22;10984;45.712;4.800;2022-12-07T12:35:33;5.70;99.90
21646;DHT22;10984;45.712;4.800;2022-12-07T12:41:02;5.60;99.90
21646;DHT22;10984;45.712;4.800;2022-12-07T12:43:48;5.70;99.90
21646;DHT22;10984;45.712;4.800;2022-12-07T13:00:15;5.60;99.90
21646;DHT22;10984;45.712;4.800;2022-12-07T13:03:01;5.50;99.90
21646;DHT22;10984;45.712;4.800;2022-12-07T13:05:28;5.50;99.90
21646;DHT22;10984;45.712;4.800;2022-12-07T13:10:45;5.50;99.90
21646;DHT22;10984;45.712;4.800;2022-12-07T13:18:40;5.50;99.90
21646;DHT22;10984;45.712;4.800;2022-12-07T13:26:54;5.40;99.90
21646;DHT22;10984;45.712;4.800;2022-12-07T13:29:21;5.40;99.90
21646;DHT22;10984;45.712;4.800;2022-12-07T13:32:16;5.40;99.90
21646;DHT22;10984;45.712;4.800;2022-12-07T13:34:45;5.40;99.90
21646;DHT22;10984;45.712;4.800;2022-12-07T13:39:56;5.40;99.90
21646;DHT22;10984;45.712;4.800;2022-12-07T13:42:24;5.30;99.90
21646;DHT22;10984;45.712;4.800;2022-12-07T13:44:50;5.40;99.90
21646;DHT22;10984;45.712;4.800;2022-12-07T13:47:36;5.30;99.90
21646;DHT22;10984;45.712;4.800;2022-12-07T13:50:20;5.30;99.90
21646;DHT22;10984;45.712;4.800;2022-12-07T13:52:47;5.30;99.90
21646;DHT22;10984;45.712;4.800;2022-12-07T13:55:16;5.30;99.90
21646;DHT22;10984;45.712;4.800;2022-12-07T13:57:44;5.30;99.90
21646;DHT22;10984;45.712;4.800;2022-12-07T14:00:30;5.30;99.90
21646;DHT22;10984;45.712;4.800;2022-12-07T14:02:58;5.30;99.90
21646;DHT22;10984;45.712;4.800;2022-12-07T14:05:44;5.30;99.90
21646;DHT22;10984;45.712;4.800;2022-12-07T14:10:55;5.30;99.90
21646;DHT22;10984;45.712;4.800;2022-12-07T14:13:44;5.30;99.90
21646;DHT22;10984;45.712;4.800;2022-12-07T14:16:30;5.30;99.90
21646;DHT22;10984;45.712;4.800;2022-12-07T14:18:58;5.30;99.90
21646;DHT22;10984;45.712;4.800;2022-12-07T14:21:27;5.30;99.90
21646;DHT22;10984;45.712;4.800;2022-12-07T14:24:15;5.30;99.90
21646;DHT22;10984;45.712;4.800;2022-12-07T14:26:42;5.30;99.90
21646;DHT22;10984;45.712;4.800;2022-12-07T14:31:54;5.20;99.90
21646;DHT22;10984;45.712;4.800;2022-12-07T14:34:21;5.20;99.90
21646;DHT22;10984;45.712;4.800;2022-12-07T14:36:47;5.20;99.90
21646;DHT22;10984;45.712;4.800;2022-12-07T14:39:13;5.20;99.90
21646;DHT22;10984;45.712;4.800;2022-12-07T14:41:39;5.20;99.90
21646;DHT22;10984;45.712;4.800;2022-12-07T14:44:23;5.20;99.90
21646;DHT22;10984;45.712;4.800;2022-12-07T14:46:50;5.20;99.90
21646;DHT22;10984;45.712;4.800;2022-12-07T14:49:16;5.10;99.90
21646;DHT22;10984;45.712;4.800;2022-12-07T14:51:43;5.10;99.90
21646;DHT22;10984;45.712;4.800;2022-12-07T14:54:20;5.10;99.90
21646;DHT22;10984;45.712;4.800;2022-12-07T14:56:46;5.10;99.90
21646;DHT22;10984;45.712;4.800;2022-12-07T14:59:15;5.10;99.90
21646;DHT22;10984;45.712;4.800;2022-12-07T15:01:41;5.00;99.90
21646;DHT22;10984;45.712;4.800;2022-12-07T15:04:07;5.00;99.90
21646;DHT22;10984;45.712;4.800;2022-12-07T15:06:33;5.00;99.90
21646;DHT22;10984;45.712;4.800;2022-12-07T15:08:59;5.00;99.90
21646;DHT22;10984;45.712;4.800;2022-12-07T15:11:24;5.00;99.90
21646;DHT22;10984;45.712;4.800;2022-12-07T15:13:50;5.00;99.90
21646;DHT22;10984;45.712;4.800;2022-12-07T15:16:35;5.00;99.90
21646;DHT22;10984;45.712;4.800;2022-12-07T15:19:02;5.00;99.90
21646;DHT22;10984;45.712;4.800;2022-12-07T15:21:27;5.00;99.90
21646;DHT22;10984;45.712;4.800;2022-12-07T15:23:53;5.00;99.90
21646;DHT22;10984;45.712;4.800;2022-12-07T15:26:19;5.00;99.90
21646;DHT22;10984;45.712;4.800;2022-12-07T15:28:45;5.00;99.90
21646;DHT22;10984;45.712;4.800;2022-12-07T15:31:14;4.90;99.90
21646;DHT22;10984;45.712;4.800;2022-12-07T15:33:41;4.90;99.90
21646;DHT22;10984;45.712;4.800;2022-12-07T15:36:07;4.80;99.90
21646;DHT22;10984;45.712;4.800;2022-12-07T15:38:33;4.80;99.90
21646;DHT22;10984;45.712;4.800;2022-12-07T15:40:59;4.90;99.90
21646;DHT22;10984;45.712;4.800;2022-12-07T15:43:24;4.90;99.90
21646;DHT22;10984;45.712;4.800;2022-12-07T15:46:08;4.80;99.90
21646;DHT22;10984;45.712;4.800;2022-12-07T15:48:34;4.80;99.90
21646;DHT22;10984;45.712;4.800;2022-12-07T15:51:18;4.80;99.90
21646;DHT22;10984;45.712;4.800;2022-12-07T15:53:44;4.80;99.90
21646;DHT22;10984;45.712;4.800;2022-12-07T15:56:10;4.80;99.90
21646;DHT22;10984;45.712;4.800;2022-12-07T15:58:35;4.80;99.90
21646;DHT22;10984;45.712;4.800;2022-12-07T16:01:10;4.80;99.90
21646;DHT22;10984;45.712;4.800;2022-12-07T16:03:36;4.80;99.90
21646;DHT22;10984;45.712;4.800;2022-12-07T16:06:01;4.70;99.90
21646;DHT22;10984;45.712;4.800;2022-12-07T16:08:27;4.70;99.90
21646;DHT22;10984;45.712;4.800;2022-12-07T16:10:52;4.70;99.90
21646;DHT22;10984;45.712;4.800;2022-12-07T16:13:18;4.70;99.90
21646;DHT22;10984;45.712;4.800;2022-12-07T16:15:44;4.70;99.90
21646;DHT22;10984;45.712;4.800;2022-12-07T16:18:10;4.70;99.90
21646;DHT22;10984;45.712;4.800;2022-12-07T16:20:36;4.80;99.90
21646;DHT22;10984;45.712;4.800;2022-12-07T16:23:01;4.70;99.90
21646;DHT22;10984;45.712;4.800;2022-12-07T16:25:27;4.70;99.90
21646;DHT22;10984;45.712;4.800;2022-12-07T16:27:53;4.70;99.90
21646;DHT22;10984;45.712;4.800;2022-12-07T16:30:19;4.70;99.90
21646;DHT22;10984;45.712;4.800;2022-12-07T16:32:45;4.70;99.90
21646;DHT22;10984;45.712;4.800;2022-12-07T16:35:11;4.80;99.90
21646;DHT22;10984;45.712;4.800;2022-12-07T16:37:38;4.80;99.90
21646;DHT22;10984;45.712;4.800;2022-12-07T16:40:04;4.80;99.90
21646;DHT22;10984;45.712;4.800;2022-12-07T16:42:49;4.80;99.90
21646;DHT22;10984;45.712;4.800;2022-12-07T16:45:14;4.80;99.90
21646;DHT22;10984;45.712;4.800;2022-12-07T16:47:40;4.70;99.90
21646;DHT22;10984;45.712;4.800;2022-12-07T16:50:07;4.80;99.90
21646;DHT22;10984;45.712;4.800;2022-12-07T16:52:33;4.80;99.90
21646;DHT22;10984;45.712;4.800;2022-12-07T16:54:59;4.80;99.90
21646;DHT22;10984;45.712;4.800;2022-12-07T16:57:25;4.80;99.90
21646;DHT22;10984;45.712;4.800;2022-12-07T16:59:51;4.80;99.90
21646;DHT22;10984;45.712;4.800;2022-12-07T17:02:18;4.70;99.90
21646;DHT22;10984;45.712;4.800;2022-12-07T17:04:43;4.70;99.90
21646;DHT22;10984;45.712;4.800;2022-12-07T17:07:10;4.80;99.90
21646;DHT22;10984;45.712;4.800;2022-12-07T17:09:36;4.80;99.90
21646;DHT22;10984;45.712;4.800;2022-12-07T17:12:02;4.80;99.90
21646;DHT22;10984;45.712;4.800;2022-12-07T17:14:27;4.80;99.90
21646;DHT22;10984;45.712;4.800;2022-12-07T17:17:11;4.80;99.90
21646;DHT22;10984;45.712;4.800;2022-12-07T17:19:37;4.80;99.90
21646;DHT22;10984;45.712;4.800;2022-12-07T17:22:04;4.80;99.90
21646;DHT22;10984;45.712;4.800;2022-12-07T17:24:29;4.80;99.90
21646;DHT22;10984;45.712;4.800;2022-12-07T17:26:55;4.80;99.90
21646;DHT22;10984;45.712;4.800;2022-12-07T17:29:21;4.80;99.90
21646;DHT22;10984;45.712;4.800;2022-12-07T17:31:48;4.80;99.90
21646;DHT22;10984;45.712;4.800;2022-12-07T17:34:15;4.80;99.90
21646;DHT22;10984;45.712;4.800;2022-12-07T17:36:41;4.80;99.90
21646;DHT22;10984;45.712;4.800;2022-12-07T17:39:08;4.70;99.90
21646;DHT22;10984;45.712;4.800;2022-12-07T17:41:36;4.70;99.90
21646;DHT22;10984;45.712;4.800;2022-12-07T17:44:21;4.70;99.90
21646;DHT22;10984;45.712;4.800;2022-12-07T17:46:49;4.70;99.90
21646;DHT22;10984;45.712;4.800;2022-12-07T17:49:16;4.70;99.90
21646;DHT22;10984;45.712;4.800;2022-12-07T17:51:42;4.70;99.90
21646;DHT22;10984;45.712;4.800;2022-12-07T17:54:26;4.70;99.90
21646;DHT22;10984;45.712;4.800;2022-12-07T17:56:52;4.70;99.90
21646;DHT22;10984;45.712;4.800;2022-12-07T17:59:17;4.70;99.90
21646;DHT22;10984;45.712;4.800;2022-12-07T18:01:43;4.70;99.90
21646;DHT22;10984;45.712;4.800;2022-12-07T18:04:09;4.70;99.90
21646;DHT22;10984;45.712;4.800;2022-12-07T18:06:35;4.70;99.90
21646;DHT22;10984;45.712;4.800;2022-12-07T18:09:02;4.70;99.90
21646;DHT22;10984;45.712;4.800;2022-12-07T18:11:28;4.70;99.90
21646;DHT22;10984;45.712;4.800;2022-12-07T18:13:54;4.70;99.90
21646;DHT22;10984;45.712;4.800;2022-12-07T18:16:22;4.70;99.90
21646;DHT22;10984;45.712;4.800;2022-12-07T18:18:48;4.70;99.90
21646;DHT22;10984;45.712;4.800;2022-12-07T18:21:33;4.80;99.90
21646;DHT22;10984;45.712;4.800;2022-12-07T18:24:01;4.70;99.90
21646;DHT22;10984;45.712;4.800;2022-12-07T18:26:28;4.70;99.90
21646;DHT22;10984;45.712;4.800;2022-12-07T18:28:54;4.70;99.90
21646;DHT22;10984;45.712;4.800;2022-12-07T18:31:19;4.70;99.90
21646;DHT22;10984;45.712;4.800;2022-12-07T18:33:46;4.70;99.90
21646;DHT22;10984;45.712;4.800;2022-12-07T18:36:14;4.70;99.90
21646;DHT22;10984;45.712;4.800;2022-12-07T18:38:39;4.70;99.90
21646;DHT22;10984;45.712;4.800;2022-12-07T18:41:24;4.70;99.90
21646;DHT22;10984;45.712;4.800;2022-12-07T18:43:49;4.70;99.90
21646;DHT22;10984;45.712;4.800;2022-12-07T18:49:01;4.70;99.90
21646;DHT22;10984;45.712;4.800;2022-12-07T18:51:27;4.70;99.90
21646;DHT22;10984;45.712;4.800;2022-12-07T18:54:12;4.60;99.90
21646;DHT22;10984;45.712;4.800;2022-12-07T18:56:38;4.60;99.90
21646;DHT22;10984;45.712;4.800;2022-12-07T18:59:04;4.60;99.90
21646;DHT22;10984;45.712;4.800;2022-12-07T19:01:51;4.60;99.90
21646;DHT22;10984;45.712;4.800;2022-12-07T19:04:17;4.60;99.90
21646;DHT22;10984;45.712;4.800;2022-12-07T19:06:45;4.50;99.90
21646;DHT22;10984;45.712;4.800;2022-12-07T19:09:11;4.50;99.90
21646;DHT22;10984;45.712;4.800;2022-12-07T19:11:37;4.50;99.90
21646;DHT22;10984;45.712;4.800;2022-12-07T19:17:09;4.50;99.90